createdAt,value
2019-05-03T03:01:06.491Z,67.30
2019-05-03T03:03:36.501Z,67.20
2019-05-03T03:06:06.963Z,67.60
2019-05-03T03:08:37.479Z,67.60
2019-05-03T03:11:08.231Z,67.50
2019-05-03T03:13:38.649Z,67.70
2019-05-03T03:16:10.747Z,67.60
2019-05-03T03:18:41.078Z,67.80
2019-05-03T03:21:19.363Z,68.00
2019-05-03T03:23:56.080Z,68.30
2019-05-03T03:26:37.486Z,68.50
2019-05-03T03:29:05.725Z,68.90
2019-05-03T03:31:47.903Z,69.10
2019-05-03T03:34:18.224Z,69.30
2019-05-03T03:37:00.830Z,69.80
2019-05-03T03:39:26.129Z,70.00
2019-05-03T03:41:55.945Z,70.40
2019-05-03T03:44:27.383Z,70.70
2019-05-03T03:46:58.710Z,70.90
2019-05-03T03:49:29.317Z,71.40
2019-05-03T03:52:00.335Z,71.60
2019-05-03T03:54:35.282Z,71.80
2019-05-03T03:57:07.891Z,72.00
2019-05-03T03:59:36.431Z,72.00
2019-05-03T04:02:06.282Z,72.70
2019-05-03T04:04:35.992Z,72.80
2019-05-03T04:07:06.546Z,73.20
2019-05-03T04:09:37.127Z,73.20
2019-05-03T04:12:06.595Z,73.20
2019-05-03T04:14:40.944Z,73.50
2019-05-03T04:17:17.676Z,73.50
2019-05-03T04:19:48.745Z,73.60
2019-05-03T04:22:18.035Z,73.70
2019-05-03T04:24:47.275Z,73.90
2019-05-03T04:27:22.987Z,73.70
2019-05-03T04:29:47.939Z,73.70
2019-05-03T04:32:17.443Z,73.90
2019-05-03T04:34:46.700Z,74.40
2019-05-03T04:37:16.478Z,74.40
2019-05-03T04:39:46.114Z,74.50
2019-05-03T04:42:16.591Z,74.40
2019-05-03T04:44:46.327Z,74.40
2019-05-03T04:47:15.881Z,74.60
2019-05-03T04:49:46.476Z,74.70
2019-05-03T04:52:16.452Z,74.30
2019-05-03T04:54:47.851Z,73.90
2019-05-03T04:57:33.945Z,73.40
2019-05-03T04:59:48.314Z,73.40
2019-05-03T05:02:17.574Z,73.40
2019-05-03T05:04:46.847Z,73.40
2019-05-03T05:07:16.120Z,73.20
2019-05-03T05:09:45.821Z,72.90
2019-05-03T05:12:16.213Z,72.80
2019-05-03T05:14:46.001Z,72.60
2019-05-03T05:17:16.972Z,72.40
2019-05-03T05:19:50.574Z,72.00
2019-05-03T05:22:30.554Z,72.00
2019-05-03T05:25:01.456Z,71.50
2019-05-03T05:27:34.485Z,70.90
2019-05-03T05:30:06.903Z,70.50
2019-05-03T05:32:36.170Z,69.90
2019-05-03T05:35:06.606Z,69.30
2019-05-03T05:37:35.879Z,68.70
2019-05-03T05:40:07.083Z,68.90
2019-05-03T05:42:36.366Z,69.50
2019-05-03T05:45:07.115Z,69.10
2019-05-03T05:47:44.833Z,69.50
2019-05-03T05:50:16.330Z,69.10
2019-05-03T05:52:45.599Z,68.10
2019-05-03T05:55:16.502Z,68.40
2019-05-03T05:58:04.600Z,68.00
2019-05-03T06:00:28.702Z,67.70
2019-05-03T06:02:57.967Z,67.20
2019-05-03T06:05:27.499Z,66.90
2019-05-03T06:08:15.126Z,67.00
2019-05-03T06:10:48.623Z,66.30
2019-05-03T06:13:22.447Z,66.20
2019-05-03T06:16:02.391Z,65.10
2019-05-03T06:18:49.628Z,64.80
2019-05-03T06:21:20.526Z,63.60
2019-05-03T06:24:07.466Z,63.50
2019-05-03T06:26:38.364Z,63.70
2019-05-03T06:29:08.093Z,62.80
2019-05-03T06:31:57.129Z,62.60
2019-05-03T06:34:27.062Z,62.70
2019-05-03T06:37:00.894Z,63.60
2019-05-03T06:39:30.855Z,64.40
2019-05-03T06:42:00.119Z,63.70
2019-05-03T06:44:29.390Z,63.30
2019-05-03T06:47:01.175Z,64.10
2019-05-03T06:49:29.606Z,63.50
2019-05-03T06:51:58.914Z,64.20
2019-05-03T06:54:30.004Z,64.40
2019-05-03T06:57:00.146Z,65.10
2019-05-03T06:59:37.647Z,65.30
2019-05-03T07:02:11.450Z,64.00
2019-05-03T07:04:45.110Z,63.30
2019-05-03T07:07:32.427Z,63.30
2019-05-03T07:10:09.015Z,62.80
2019-05-03T07:12:55.887Z,62.40
2019-05-03T07:15:25.407Z,62.60
2019-05-03T07:17:55.585Z,62.70
2019-05-03T07:20:25.700Z,62.60
2019-05-03T07:22:56.063Z,62.80
2019-05-03T07:25:25.854Z,63.00
2019-05-03T07:27:55.796Z,63.60
2019-05-03T07:30:25.149Z,63.80
2019-05-03T07:32:56.171Z,64.10
2019-05-03T07:35:25.435Z,64.50
2019-05-03T07:37:55.432Z,64.20
2019-05-03T07:40:25.464Z,63.10
2019-05-03T07:42:55.500Z,62.90
2019-05-03T07:45:25.433Z,63.10
2019-05-03T07:47:56.135Z,64.00
2019-05-03T07:50:26.535Z,64.20
2019-05-03T07:52:55.967Z,65.10
2019-05-03T07:55:45.674Z,65.40
2019-05-03T07:58:16.382Z,68.90
2019-05-03T08:00:45.684Z,70.60
2019-05-03T08:03:15.457Z,69.90
2019-05-03T08:05:45.384Z,69.50
2019-05-03T08:08:15.850Z,69.40
2019-05-03T08:10:45.238Z,69.70
2019-05-03T08:13:15.131Z,69.40
2019-05-03T08:15:45.677Z,69.50
2019-05-03T08:18:15.495Z,68.80
2019-05-03T08:20:45.319Z,69.00
2019-05-03T08:23:26.343Z,69.10
2019-05-03T08:25:46.829Z,66.40
2019-05-03T08:28:16.095Z,67.40
2019-05-03T08:30:58.767Z,64.20
2019-05-03T08:33:29.671Z,62.70
2019-05-03T08:35:58.935Z,64.00
2019-05-03T08:38:28.206Z,64.60
2019-05-03T08:40:59.467Z,61.60
2019-05-03T08:43:29.706Z,59.70
2019-05-03T08:45:58.964Z,58.80
2019-05-03T08:48:28.235Z,57.50
2019-05-03T08:50:57.723Z,56.30
2019-05-03T08:53:27.219Z,55.80
2019-05-03T08:55:56.498Z,54.70
2019-05-03T08:58:25.984Z,55.20
2019-05-03T09:00:55.419Z,54.60
2019-05-03T09:03:25.061Z,55.10
2019-05-03T09:05:56.448Z,55.00
2019-05-03T09:08:25.327Z,54.10
2019-05-03T09:10:56.230Z,55.10
2019-05-03T09:13:25.494Z,54.10
2019-05-03T09:15:55.513Z,54.00
2019-05-03T09:18:25.821Z,54.10
2019-05-03T09:20:55.601Z,54.20
2019-05-03T09:23:26.041Z,53.80
2019-05-03T09:25:55.570Z,52.80
2019-05-03T09:28:26.465Z,53.20
2019-05-03T09:30:56.092Z,53.70
2019-05-03T09:34:15.968Z,54.50
2019-05-03T09:37:02.191Z,54.20
2019-05-03T09:40:10.048Z,53.20
2019-05-03T09:42:55.078Z,53.70
2019-05-03T09:45:24.682Z,53.70
2019-05-03T09:48:37.489Z,53.20
2019-05-03T09:51:25.541Z,53.60
2019-05-03T09:53:59.584Z,52.90
2019-05-03T09:56:55.321Z,53.70
2019-05-03T09:59:17.791Z,53.10
2019-05-03T10:01:47.279Z,51.70
2019-05-03T10:04:18.084Z,52.10
2019-05-03T10:06:48.887Z,51.30
2019-05-03T10:09:18.259Z,50.60
2019-05-03T10:11:47.615Z,50.60
2019-05-03T10:14:17.115Z,52.00
2019-05-03T10:17:05.330Z,51.40
2019-05-03T10:19:39.911Z,51.40
2019-05-03T10:22:05.964Z,51.50
2019-05-03T10:24:36.403Z,49.20
2019-05-03T10:27:05.764Z,49.30
2019-05-03T10:29:35.242Z,49.50
2019-05-03T10:32:18.519Z,48.30
2019-05-03T10:34:55.139Z,48.70
2019-05-03T10:37:35.886Z,49.20
2019-05-03T10:40:08.301Z,47.50
2019-05-03T10:42:38.236Z,46.00
2019-05-03T10:45:07.702Z,45.90
2019-05-03T10:47:37.050Z,45.00
2019-05-03T10:50:07.923Z,44.50
2019-05-03T10:52:38.904Z,41.80
2019-05-03T10:55:08.197Z,42.50
2019-05-03T10:57:39.149Z,43.40
2019-05-03T11:00:38.663Z,44.60
2019-05-03T11:02:55.078Z,45.20
2019-05-03T11:05:24.577Z,45.60
2019-05-03T11:07:55.629Z,46.70
2019-05-03T11:10:25.362Z,47.20
2019-05-03T11:12:54.920Z,47.60
2019-05-03T11:15:25.828Z,47.80
2019-05-03T11:17:55.452Z,47.60
2019-05-03T11:20:34.612Z,46.60
2019-05-03T11:23:06.646Z,46.00
2019-05-03T11:25:36.552Z,46.30
2019-05-03T11:28:10.579Z,46.90
2019-05-03T11:30:51.650Z,47.60
2019-05-03T11:33:28.539Z,47.40
2019-05-03T11:36:15.406Z,45.20
2019-05-03T11:38:45.732Z,43.50
2019-05-03T11:41:19.202Z,42.50
2019-05-03T11:43:46.276Z,43.00
2019-05-03T11:46:15.541Z,44.00
2019-05-03T11:48:45.538Z,43.50
2019-05-03T11:51:15.268Z,42.70
2019-05-03T11:53:45.114Z,42.60
2019-05-03T11:56:14.895Z,42.40
2019-05-03T11:58:45.686Z,41.10
2019-05-03T12:01:20.070Z,41.60
2019-05-03T12:03:48.782Z,41.30
2019-05-03T12:06:18.031Z,41.70
2019-05-03T12:08:47.299Z,41.50
2019-05-03T12:11:16.567Z,41.30
2019-05-03T12:13:46.137Z,39.90
2019-05-03T12:16:22.800Z,40.60
2019-05-03T12:18:53.526Z,40.70
2019-05-03T12:21:19.970Z,40.30
2019-05-03T12:23:50.097Z,40.90
2019-05-03T12:26:20.263Z,41.20
2019-05-03T12:28:49.919Z,40.80
2019-05-03T12:31:33.480Z,39.10
2019-05-03T12:33:50.150Z,38.60
2019-05-03T12:36:19.420Z,38.20
2019-05-03T12:38:48.685Z,38.10
2019-05-03T12:41:18.054Z,39.30
2019-05-03T12:43:47.325Z,38.20
2019-05-03T12:46:16.948Z,38.00
2019-05-03T12:48:46.552Z,38.90
2019-05-03T12:51:16.836Z,40.00
2019-05-03T12:53:46.362Z,40.20
2019-05-03T12:56:22.601Z,39.80
2019-05-03T12:58:48.723Z,38.30
2019-05-03T13:01:40.752Z,35.90
2019-05-03T13:04:15.167Z,35.60
2019-05-03T13:06:45.903Z,35.40
2019-05-03T13:09:16.017Z,37.50
2019-05-03T13:11:55.144Z,38.70
2019-05-03T13:14:17.994Z,36.00
2019-05-03T13:16:47.270Z,35.60
2019-05-03T13:19:16.746Z,36.60
2019-05-03T13:21:46.013Z,37.10
2019-05-03T13:24:22.955Z,37.70
2019-05-03T13:26:46.258Z,38.70
2019-05-03T13:29:15.510Z,37.50
2019-05-03T13:31:55.784Z,37.90
2019-05-03T13:34:16.044Z,38.80
2019-05-03T13:36:45.680Z,37.90
2019-05-03T13:39:15.164Z,37.00
2019-05-03T13:41:45.502Z,37.90
2019-05-03T13:44:15.935Z,37.20
2019-05-03T13:46:45.199Z,37.10
2019-05-03T13:49:15.858Z,37.00
2019-05-03T13:51:46.171Z,37.20
2019-05-03T13:54:15.438Z,36.70
2019-05-03T13:56:44.703Z,36.20
2019-05-03T13:59:19.827Z,35.50
2019-05-03T14:01:45.179Z,35.40
2019-05-03T14:04:14.761Z,34.50
2019-05-03T14:06:45.192Z,34.20
2019-05-03T14:09:14.688Z,33.00
2019-05-03T14:11:44.847Z,32.30
2019-05-03T14:14:15.262Z,32.30
2019-05-03T14:16:45.256Z,31.70
2019-05-03T14:19:28.279Z,30.40
2019-05-03T14:21:59.192Z,31.60
2019-05-03T14:24:28.450Z,34.00
2019-05-03T14:26:57.799Z,33.60
2019-05-03T14:29:27.066Z,33.20
2019-05-03T14:31:56.331Z,31.20
2019-05-03T14:34:25.810Z,28.20
2019-05-03T14:36:55.519Z,27.70
2019-05-03T14:39:25.317Z,28.50
2019-05-03T14:41:55.498Z,28.40
2019-05-03T14:44:25.321Z,28.20
2019-05-03T14:46:58.802Z,26.70
2019-05-03T14:49:25.901Z,25.80
2019-05-03T14:51:56.701Z,26.60
2019-05-03T14:54:27.823Z,27.60
2019-05-03T14:57:04.849Z,27.20
2019-05-03T14:59:35.750Z,27.40
2019-05-03T15:02:07.063Z,26.60
2019-05-03T15:04:36.563Z,25.20
2019-05-03T15:07:06.246Z,26.10
2019-05-03T15:09:35.597Z,27.30
2019-05-03T15:12:06.265Z,26.90
2019-05-03T15:14:35.915Z,26.60
2019-05-03T15:17:05.461Z,26.20
2019-05-03T15:19:35.728Z,27.30
2019-05-03T15:22:05.657Z,28.30
2019-05-03T15:24:35.094Z,28.30
2019-05-03T15:27:04.876Z,28.20
2019-05-03T15:29:35.478Z,29.60
2019-05-03T15:32:05.219Z,29.20
2019-05-03T15:34:35.433Z,29.30
2019-05-03T15:37:05.540Z,28.60
2019-05-03T15:39:35.103Z,27.80
2019-05-03T15:42:05.333Z,28.30
2019-05-03T15:44:54.611Z,29.00
2019-05-03T15:47:25.709Z,28.70
2019-05-03T15:49:55.430Z,29.60
2019-05-03T15:52:24.775Z,30.10
2019-05-03T15:54:55.203Z,30.40
2019-05-03T15:57:25.467Z,30.50
2019-05-03T15:59:55.600Z,30.80
2019-05-03T16:02:25.154Z,30.90
2019-05-03T16:04:56.381Z,31.00
2019-05-03T16:07:25.375Z,31.70
2019-05-03T16:09:55.339Z,33.10
2019-05-03T16:12:24.684Z,33.90
2019-05-03T16:14:55.235Z,33.50
2019-05-03T16:17:24.588Z,33.50
2019-05-03T16:19:55.732Z,32.40
2019-05-03T16:22:24.990Z,32.00
2019-05-03T16:24:55.671Z,32.30
2019-05-03T16:27:29.721Z,32.00
2019-05-03T16:29:59.251Z,32.00
2019-05-03T16:32:28.745Z,32.70
2019-05-03T16:34:58.019Z,34.00
2019-05-03T16:37:27.282Z,33.60
2019-05-03T16:39:57.869Z,34.40
2019-05-03T16:42:27.291Z,34.30
2019-05-03T16:44:56.612Z,33.60
2019-05-03T16:47:26.118Z,34.10
2019-05-03T16:49:55.612Z,34.70
2019-05-03T16:52:25.658Z,35.70
2019-05-03T16:54:55.019Z,35.60
2019-05-03T16:57:24.687Z,35.60
2019-05-03T16:59:55.075Z,36.50
2019-05-03T17:02:24.642Z,35.80
2019-05-03T17:04:58.114Z,35.40
2019-05-03T17:07:39.935Z,35.80
2019-05-03T17:10:18.203Z,36.40
2019-05-03T17:12:47.462Z,37.30
2019-05-03T17:15:16.787Z,37.50
2019-05-03T17:17:46.124Z,37.80
2019-05-03T17:20:16.583Z,37.80
2019-05-03T17:22:46.335Z,37.60
2019-05-03T17:25:16.570Z,37.80
2019-05-03T17:27:45.907Z,38.00
2019-05-03T17:30:15.477Z,38.60
2019-05-03T17:32:44.865Z,38.60
2019-05-03T17:35:14.462Z,38.50
2019-05-03T17:37:45.199Z,38.30
2019-05-03T17:40:19.258Z,38.20
2019-05-03T17:43:06.204Z,38.80
2019-05-03T17:45:39.846Z,39.00
2019-05-03T17:48:09.335Z,39.50
2019-05-03T17:50:38.602Z,39.90
2019-05-03T17:53:25.434Z,40.30
2019-05-03T17:55:56.398Z,40.10
2019-05-03T17:58:44.369Z,39.90
2019-05-03T18:01:30.994Z,40.50
2019-05-03T18:04:10.998Z,40.90
2019-05-03T18:06:50.888Z,41.30
2019-05-03T18:09:21.794Z,41.60
2019-05-03T18:11:55.382Z,41.50
2019-05-03T18:14:25.104Z,41.90
2019-05-03T18:16:54.862Z,42.40
2019-05-03T18:19:24.234Z,42.70
2019-05-03T18:21:55.330Z,43.00
2019-05-03T18:24:24.798Z,43.40
2019-05-03T18:26:54.386Z,43.10
2019-05-03T18:29:25.274Z,43.70
2019-05-03T18:31:55.080Z,43.90
2019-05-03T18:34:24.988Z,44.10
2019-05-03T18:36:54.294Z,44.10
2019-05-03T18:39:25.269Z,44.20
2019-05-03T18:41:54.609Z,44.30
2019-05-03T18:44:25.502Z,44.60
2019-05-03T18:46:56.415Z,45.00
2019-05-03T18:49:25.678Z,45.80
2019-05-03T18:51:55.465Z,45.60
2019-05-03T18:54:24.789Z,46.10
2019-05-03T18:56:55.851Z,46.30
2019-05-03T18:59:25.146Z,45.70
2019-05-03T19:01:55.189Z,46.10
2019-05-03T19:04:34.238Z,46.60
2019-05-03T19:07:04.347Z,47.10
2019-05-03T19:09:42.927Z,47.40
2019-05-03T19:12:15.380Z,47.50
2019-05-03T19:14:45.109Z,47.40
2019-05-03T19:17:21.963Z,47.50
2019-05-03T19:19:55.542Z,47.60
2019-05-03T19:22:25.059Z,47.80
2019-05-03T19:24:55.388Z,47.50
2019-05-03T19:27:25.195Z,47.50
2019-05-03T19:29:55.635Z,47.60
2019-05-03T19:32:28.207Z,47.80
2019-05-03T19:34:56.103Z,48.10
2019-05-03T19:37:25.380Z,48.50
2019-05-03T19:39:55.303Z,48.60
2019-05-03T19:42:27.209Z,48.50
2019-05-03T19:44:55.666Z,48.70
2019-05-03T19:47:25.420Z,48.40
2019-05-03T19:49:54.886Z,48.70
2019-05-03T19:52:25.854Z,48.80
2019-05-03T19:54:55.393Z,48.90
2019-05-03T19:57:29.209Z,49.10
2019-05-03T19:59:58.492Z,49.40
2019-05-03T20:02:38.502Z,49.50
2019-05-03T20:05:12.233Z,49.70
2019-05-03T20:07:59.256Z,50.00
2019-05-03T20:10:29.423Z,49.90
2019-05-03T20:12:59.666Z,49.90
2019-05-03T20:15:28.959Z,50.20
2019-05-03T20:18:00.260Z,50.10
2019-05-03T20:20:29.185Z,50.40
2019-05-03T20:22:59.431Z,50.50
2019-05-03T20:25:29.675Z,50.70
2019-05-03T20:27:58.940Z,50.90
2019-05-03T20:30:28.224Z,50.90
2019-05-03T20:32:57.727Z,51.10
2019-05-03T20:35:26.991Z,51.40
2019-05-03T20:37:56.255Z,51.70
2019-05-03T20:40:28.235Z,51.80
2019-05-03T20:42:59.357Z,52.00
2019-05-03T20:45:30.270Z,52.10
2019-05-03T20:48:00.130Z,52.00
2019-05-03T20:50:29.402Z,52.20
2019-05-03T20:52:58.686Z,52.50
2019-05-03T20:55:27.964Z,52.70
2019-05-03T20:57:57.291Z,52.60
2019-05-03T21:00:27.051Z,53.00
2019-05-03T21:02:57.267Z,52.60
2019-05-03T21:05:31.227Z,52.60
2019-05-03T21:07:57.776Z,52.90
2019-05-03T21:10:27.276Z,53.00
2019-05-03T21:12:56.533Z,53.40
2019-05-03T21:15:30.391Z,53.40
2019-05-03T21:18:15.111Z,53.40
2019-05-03T21:20:48.840Z,53.10
2019-05-03T21:23:25.635Z,53.80
2019-05-03T21:26:12.611Z,54.00
2019-05-03T21:28:36.258Z,54.00
2019-05-03T21:31:05.795Z,54.00
2019-05-03T21:33:35.592Z,54.70
2019-05-03T21:36:04.904Z,54.80
2019-05-03T21:38:35.505Z,54.70
2019-05-03T21:41:05.427Z,55.10
2019-05-03T21:43:35.027Z,55.00
2019-05-03T21:46:25.567Z,54.90
2019-05-03T21:48:56.515Z,55.10
2019-05-03T21:51:25.798Z,55.40
2019-05-03T21:53:55.047Z,55.80
2019-05-03T21:56:24.972Z,56.10
2019-05-03T21:58:55.266Z,56.20
2019-05-03T22:01:25.875Z,56.30
2019-05-03T22:03:55.547Z,56.50
2019-05-03T22:06:24.838Z,57.10
2019-05-03T22:08:55.448Z,57.00
2019-05-03T22:11:25.154Z,57.60
2019-05-03T22:13:57.160Z,57.40
2019-05-03T22:16:28.207Z,57.60
2019-05-03T22:18:57.703Z,57.80
2019-05-03T22:21:28.606Z,57.70
2019-05-03T22:24:02.179Z,57.80
2019-05-03T22:26:53.786Z,57.80
2019-05-03T22:29:25.200Z,58.00
2019-05-03T22:31:54.850Z,58.30
2019-05-03T22:34:25.821Z,58.00
2019-05-03T22:36:55.491Z,58.00
2019-05-03T22:39:25.160Z,58.40
2019-05-03T22:41:54.634Z,58.20
2019-05-03T22:44:25.368Z,58.60
2019-05-03T22:46:55.254Z,58.80
2019-05-03T22:49:25.938Z,58.90
2019-05-03T22:51:55.488Z,59.20
2019-05-03T22:54:24.826Z,59.40
2019-05-03T22:56:55.619Z,59.80
2019-05-03T22:59:25.918Z,60.10
2019-05-03T23:01:55.183Z,60.50
2019-05-03T23:04:25.373Z,60.00
2019-05-03T23:06:56.009Z,60.20
2019-05-03T23:09:25.294Z,60.50
2019-05-03T23:11:55.295Z,60.60
2019-05-03T23:14:25.549Z,61.00
2019-05-03T23:16:55.037Z,61.40
2019-05-03T23:19:24.322Z,61.40
2019-05-03T23:21:55.294Z,61.60
2019-05-03T23:24:24.779Z,61.30
2019-05-03T23:26:54.115Z,61.50
2019-05-03T23:29:23.386Z,61.00
2019-05-03T23:31:52.654Z,61.10
2019-05-03T23:34:21.926Z,60.80
2019-05-03T23:36:51.202Z,60.10
2019-05-03T23:39:20.482Z,60.80
2019-05-03T23:41:49.753Z,61.50
2019-05-03T23:44:19.028Z,61.80
2019-05-03T23:46:49.926Z,61.90
2019-05-03T23:49:19.209Z,61.50
2019-05-03T23:51:50.168Z,61.50
2019-05-03T23:54:19.438Z,61.50
2019-05-03T23:56:49.090Z,61.40
2019-05-03T23:59:19.337Z,61.60
